sensor_id;sensor_type;location;lat;lon;timestamp;P1;durP1;ratioP1;P2;durP2;ratioP2
54189;SDS011;40340;53.208;6.582;2022-10-30T00:00:01;23.90;;;12.73;;
54189;SDS011;40340;53.208;6.582;2022-10-30T00:02:28;21.77;;;12.52;;
54189;SDS011;40340;53.208;6.582;2022-10-30T00:04:54;26.27;;;13.00;;
54189;SDS011;40340;53.208;6.582;2022-10-30T00:07:19;20.73;;;12.13;;
54189;SDS011;40340;53.208;6.582;2022-10-30T00:09:45;24.00;;;12.83;;
54189;SDS011;40340;53.208;6.582;2022-10-30T00:12:11;21.33;;;12.10;;
54189;SDS011;40340;53.208;6.582;2022-10-30T00:14:36;24.37;;;11.93;;
54189;SDS011;40340;53.208;6.582;2022-10-30T00:17:02;21.60;;;12.13;;
54189;SDS011;40340;53.208;6.582;2022-10-30T00:19:28;25.20;;;11.90;;
54189;SDS011;40340;53.208;6.582;2022-10-30T00:21:53;23.87;;;13.10;;
54189;SDS011;40340;53.208;6.582;2022-10-30T00:24:21;26.55;;;13.57;;
54189;SDS011;40340;53.208;6.582;2022-10-30T00:26:47;23.90;;;12.48;;
54189;SDS011;40340;53.208;6.582;2022-10-30T00:29:14;25.42;;;12.02;;
54189;SDS011;40340;53.208;6.582;2022-10-30T00:31:39;20.50;;;11.83;;
54189;SDS011;40340;53.208;6.582;2022-10-30T00:34:05;25.05;;;12.25;;
54189;SDS011;40340;53.208;6.582;2022-10-30T00:36:31;25.57;;;12.83;;
54189;SDS011;40340;53.208;6.582;2022-10-30T00:38:57;29.27;;;11.93;;
54189;SDS011;40340;53.208;6.582;2022-10-30T00:41:23;23.77;;;11.80;;
54189;SDS011;40340;53.208;6.582;2022-10-30T00:43:49;30.02;;;12.60;;
54189;SDS011;40340;53.208;6.582;2022-10-30T00:48:41;27.03;;;11.43;;
54189;SDS011;40340;53.208;6.582;2022-10-30T00:51:19;25.90;;;11.77;;
54189;SDS011;40340;53.208;6.582;2022-10-30T00:53:46;20.83;;;11.13;;
54189;SDS011;40340;53.208;6.582;2022-10-30T00:56:13;27.80;;;12.18;;
54189;SDS011;40340;53.208;6.582;2022-10-30T00:58:43;26.30;;;12.35;;
54189;SDS011;40340;53.208;6.582;2022-10-30T01:01:16;26.08;;;11.48;;
54189;SDS011;40340;53.208;6.582;2022-10-30T01:03:46;23.23;;;11.70;;
54189;SDS011;40340;53.208;6.582;2022-10-30T01:06:14;22.73;;;11.15;;
54189;SDS011;40340;53.208;6.582;2022-10-30T01:08:40;24.90;;;11.27;;
54189;SDS011;40340;53.208;6.582;2022-10-30T01:11:07;26.15;;;11.60;;
54189;SDS011;40340;53.208;6.582;2022-10-30T01:13:33;24.10;;;12.10;;
54189;SDS011;40340;53.208;6.582;2022-10-30T01:19:19;24.05;;;10.80;;
54189;SDS011;40340;53.208;6.582;2022-10-30T01:40:53;20.45;;;11.63;;
54189;SDS011;40340;53.208;6.582;2022-10-30T01:43:18;23.35;;;10.98;;
54189;SDS011;40340;53.208;6.582;2022-10-30T01:54:45;26.08;;;11.65;;
54189;SDS011;40340;53.208;6.582;2022-10-30T01:59:54;24.98;;;11.10;;
54189;SDS011;40340;53.208;6.582;2022-10-30T02:02:24;29.88;;;12.07;;
54189;SDS011;40340;53.208;6.582;2022-10-30T02:04:50;20.58;;;11.10;;
54189;SDS011;40340;53.208;6.582;2022-10-30T02:07:16;21.83;;;11.55;;
54189;SDS011;40340;53.208;6.582;2022-10-30T02:09:42;25.23;;;11.73;;
54189;SDS011;40340;53.208;6.582;2022-10-30T02:12:07;24.08;;;11.38;;
54189;SDS011;40340;53.208;6.582;2022-10-30T02:14:41;22.38;;;11.18;;
54189;SDS011;40340;53.208;6.582;2022-10-30T02:17:09;23.17;;;11.43;;
54189;SDS011;40340;53.208;6.582;2022-10-30T02:19:36;26.50;;;12.10;;
54189;SDS011;40340;53.208;6.582;2022-10-30T02:22:02;21.47;;;10.80;;
54189;SDS011;40340;53.208;6.582;2022-10-30T02:24:28;20.17;;;11.43;;
54189;SDS011;40340;53.208;6.582;2022-10-30T02:26:55;22.83;;;11.40;;
54189;SDS011;40340;53.208;6.582;2022-10-30T02:29:20;25.00;;;12.40;;
54189;SDS011;40340;53.208;6.582;2022-10-30T02:31:46;26.48;;;11.57;;
54189;SDS011;40340;53.208;6.582;2022-10-30T02:34:12;22.25;;;11.23;;
54189;SDS011;40340;53.208;6.582;2022-10-30T02:36:38;22.53;;;11.73;;
54189;SDS011;40340;53.208;6.582;2022-10-30T02:39:03;20.07;;;11.37;;
54189;SDS011;40340;53.208;6.582;2022-10-30T02:43:56;25.38;;;11.02;;
54189;SDS011;40340;53.208;6.582;2022-10-30T02:46:21;23.80;;;11.57;;
54189;SDS011;40340;53.208;6.582;2022-10-30T02:48:47;26.10;;;11.50;;
54189;SDS011;40340;53.208;6.582;2022-10-30T02:51:13;23.67;;;11.77;;
54189;SDS011;40340;53.208;6.582;2022-10-30T02:53:39;22.83;;;11.07;;
54189;SDS011;40340;53.208;6.582;2022-10-30T02:56:05;22.27;;;11.82;;
54189;SDS011;40340;53.208;6.582;2022-10-30T02:58:33;25.38;;;11.35;;
54189;SDS011;40340;53.208;6.582;2022-10-30T03:01:09;24.63;;;11.25;;
54189;SDS011;40340;53.208;6.582;2022-10-30T03:03:37;22.35;;;11.70;;
54189;SDS011;40340;53.208;6.582;2022-10-30T03:06:03;21.70;;;12.05;;
54189;SDS011;40340;53.208;6.582;2022-10-30T03:08:31;20.35;;;11.93;;
54189;SDS011;40340;53.208;6.582;2022-10-30T03:11:11;23.20;;;12.15;;
54189;SDS011;40340;53.208;6.582;2022-10-30T03:13:38;22.55;;;11.73;;
54189;SDS011;40340;53.208;6.582;2022-10-30T03:16:06;22.98;;;11.35;;
54189;SDS011;40340;53.208;6.582;2022-10-30T03:18:33;24.20;;;11.73;;
54189;SDS011;40340;53.208;6.582;2022-10-30T03:21:00;25.20;;;11.80;;
54189;SDS011;40340;53.208;6.582;2022-10-30T03:23:27;24.42;;;11.98;;
54189;SDS011;40340;53.208;6.582;2022-10-30T03:25:54;22.00;;;12.15;;
54189;SDS011;40340;53.208;6.582;2022-10-30T03:28:21;23.05;;;12.75;;
54189;SDS011;40340;53.208;6.582;2022-10-30T03:30:48;20.73;;;11.55;;
54189;SDS011;40340;53.208;6.582;2022-10-30T03:33:15;26.92;;;12.13;;
54189;SDS011;40340;53.208;6.582;2022-10-30T03:35:42;24.60;;;12.02;;
54189;SDS011;40340;53.208;6.582;2022-10-30T03:38:09;24.90;;;12.10;;
54189;SDS011;40340;53.208;6.582;2022-10-30T03:40:35;23.55;;;11.45;;
54189;SDS011;40340;53.208;6.582;2022-10-30T03:43:01;24.15;;;11.38;;
54189;SDS011;40340;53.208;6.582;2022-10-30T03:45:26;23.80;;;11.77;;
54189;SDS011;40340;53.208;6.582;2022-10-30T03:47:52;22.47;;;11.53;;
54189;SDS011;40340;53.208;6.582;2022-10-30T03:50:17;22.27;;;11.77;;
54189;SDS011;40340;53.208;6.582;2022-10-30T03:52:43;22.83;;;12.07;;
54189;SDS011;40340;53.208;6.582;2022-10-30T03:55:08;27.30;;;11.77;;
54189;SDS011;40340;53.208;6.582;2022-10-30T03:57:37;20.52;;;11.10;;
54189;SDS011;40340;53.208;6.582;2022-10-30T04:00:03;19.77;;;11.80;;
54189;SDS011;40340;53.208;6.582;2022-10-30T04:02:29;22.27;;;11.52;;
54189;SDS011;40340;53.208;6.582;2022-10-30T04:04:55;24.83;;;12.17;;
54189;SDS011;40340;53.208;6.582;2022-10-30T04:07:20;21.85;;;11.60;;
54189;SDS011;40340;53.208;6.582;2022-10-30T04:09:46;22.55;;;11.60;;
54189;SDS011;40340;53.208;6.582;2022-10-30T04:12:12;19.75;;;12.40;;
54189;SDS011;40340;53.208;6.582;2022-10-30T04:14:37;27.63;;;11.17;;
54189;SDS011;40340;53.208;6.582;2022-10-30T04:17:03;23.40;;;12.13;;
54189;SDS011;40340;53.208;6.582;2022-10-30T04:19:30;25.10;;;12.27;;
54189;SDS011;40340;53.208;6.582;2022-10-30T04:21:56;25.75;;;12.10;;
54189;SDS011;40340;53.208;6.582;2022-10-30T04:24:22;21.97;;;12.57;;
54189;SDS011;40340;53.208;6.582;2022-10-30T04:26:47;21.43;;;12.17;;
54189;SDS011;40340;53.208;6.582;2022-10-30T04:29:13;28.33;;;11.82;;
54189;SDS011;40340;53.208;6.582;2022-10-30T04:31:39;28.75;;;13.35;;
54189;SDS011;40340;53.208;6.582;2022-10-30T04:34:04;27.92;;;13.05;;
54189;SDS011;40340;53.208;6.582;2022-10-30T04:36:30;22.77;;;12.13;;
54189;SDS011;40340;53.208;6.582;2022-10-30T04:38:58;28.65;;;12.13;;
54189;SDS011;40340;53.208;6.582;2022-10-30T04:41:24;22.23;;;12.23;;
54189;SDS011;40340;53.208;6.582;2022-10-30T04:43:49;23.87;;;12.30;;
54189;SDS011;40340;53.208;6.582;2022-10-30T04:46:15;25.87;;;12.77;;
54189;SDS011;40340;53.208;6.582;2022-10-30T04:48:41;20.48;;;12.57;;
54189;SDS011;40340;53.208;6.582;2022-10-30T04:51:07;27.40;;;12.93;;
54189;SDS011;40340;53.208;6.582;2022-10-30T04:53:33;23.77;;;12.98;;
54189;SDS011;40340;53.208;6.582;2022-10-30T04:55:59;27.33;;;12.73;;
54189;SDS011;40340;53.208;6.582;2022-10-30T04:58:25;20.23;;;12.77;;
54189;SDS011;40340;53.208;6.582;2022-10-30T05:00:50;26.98;;;12.85;;
54189;SDS011;40340;53.208;6.582;2022-10-30T05:03:17;29.30;;;13.00;;
54189;SDS011;40340;53.208;6.582;2022-10-30T05:05:47;21.15;;;11.80;;
54189;SDS011;40340;53.208;6.582;2022-10-30T05:08:21;25.75;;;12.60;;
54189;SDS011;40340;53.208;6.582;2022-10-30T05:10:47;25.02;;;13.07;;
54189;SDS011;40340;53.208;6.582;2022-10-30T05:13:12;20.67;;;12.47;;
54189;SDS011;40340;53.208;6.582;2022-10-30T05:15:38;29.63;;;12.85;;
54189;SDS011;40340;53.208;6.582;2022-10-30T05:18:04;26.40;;;12.55;;
54189;SDS011;40340;53.208;6.582;2022-10-30T05:20:29;23.48;;;12.20;;
54189;SDS011;40340;53.208;6.582;2022-10-30T05:22:55;23.63;;;13.27;;
54189;SDS011;40340;53.208;6.582;2022-10-30T05:25:22;25.15;;;13.77;;
54189;SDS011;40340;53.208;6.582;2022-10-30T05:27:48;24.02;;;12.70;;
54189;SDS011;40340;53.208;6.582;2022-10-30T05:30:14;27.67;;;13.03;;
54189;SDS011;40340;53.208;6.582;2022-10-30T05:32:40;24.88;;;13.60;;
54189;SDS011;40340;53.208;6.582;2022-10-30T05:35:05;28.02;;;13.48;;
54189;SDS011;40340;53.208;6.582;2022-10-30T05:37:31;28.92;;;12.65;;
54189;SDS011;40340;53.208;6.582;2022-10-30T05:39:57;22.97;;;12.77;;
54189;SDS011;40340;53.208;6.582;2022-10-30T05:42:22;24.50;;;12.10;;
54189;SDS011;40340;53.208;6.582;2022-10-30T05:44:48;27.73;;;12.98;;
54189;SDS011;40340;53.208;6.582;2022-10-30T05:47:13;27.20;;;13.50;;
54189;SDS011;40340;53.208;6.582;2022-10-30T05:49:39;23.93;;;12.30;;
54189;SDS011;40340;53.208;6.582;2022-10-30T05:52:04;26.55;;;13.07;;
54189;SDS011;40340;53.208;6.582;2022-10-30T05:54:30;31.17;;;14.27;;
54189;SDS011;40340;53.208;6.582;2022-10-30T05:56:56;25.58;;;13.70;;
54189;SDS011;40340;53.208;6.582;2022-10-30T05:59:22;27.30;;;13.77;;
54189;SDS011;40340;53.208;6.582;2022-10-30T06:01:48;24.95;;;13.60;;
54189;SDS011;40340;53.208;6.582;2022-10-30T06:04:13;23.65;;;12.90;;
54189;SDS011;40340;53.208;6.582;2022-10-30T06:06:39;20.95;;;13.73;;
54189;SDS011;40340;53.208;6.582;2022-10-30T06:09:05;26.08;;;13.50;;
54189;SDS011;40340;53.208;6.582;2022-10-30T06:11:30;24.83;;;13.35;;
54189;SDS011;40340;53.208;6.582;2022-10-30T06:13:56;29.80;;;14.13;;
54189;SDS011;40340;53.208;6.582;2022-10-30T06:16:21;20.80;;;12.93;;
54189;SDS011;40340;53.208;6.582;2022-10-30T06:18:47;25.20;;;14.30;;
54189;SDS011;40340;53.208;6.582;2022-10-30T06:21:13;27.88;;;13.48;;
54189;SDS011;40340;53.208;6.582;2022-10-30T06:23:38;28.52;;;14.20;;
54189;SDS011;40340;53.208;6.582;2022-10-30T06:26:04;25.92;;;13.45;;
54189;SDS011;40340;53.208;6.582;2022-10-30T06:28:29;25.92;;;14.32;;
54189;SDS011;40340;53.208;6.582;2022-10-30T06:30:55;29.45;;;15.20;;
54189;SDS011;40340;53.208;6.582;2022-10-30T06:33:20;26.98;;;14.38;;
54189;SDS011;40340;53.208;6.582;2022-10-30T06:35:47;30.35;;;14.68;;
54189;SDS011;40340;53.208;6.582;2022-10-30T06:38:13;28.10;;;14.60;;
54189;SDS011;40340;53.208;6.582;2022-10-30T06:40:40;28.42;;;14.52;;
54189;SDS011;40340;53.208;6.582;2022-10-30T06:43:05;28.60;;;14.50;;
54189;SDS011;40340;53.208;6.582;2022-10-30T06:45:31;26.58;;;15.00;;
54189;SDS011;40340;53.208;6.582;2022-10-30T06:47:58;30.30;;;15.82;;
54189;SDS011;40340;53.208;6.582;2022-10-30T06:50:24;28.45;;;15.52;;
54189;SDS011;40340;53.208;6.582;2022-10-30T06:52:49;34.42;;;14.57;;
54189;SDS011;40340;53.208;6.582;2022-10-30T06:55:15;26.88;;;15.40;;
54189;SDS011;40340;53.208;6.582;2022-10-30T06:57:41;26.30;;;15.10;;
54189;SDS011;40340;53.208;6.582;2022-10-30T07:00:07;23.77;;;14.60;;
54189;SDS011;40340;53.208;6.582;2022-10-30T07:02:33;27.50;;;15.10;;
54189;SDS011;40340;53.208;6.582;2022-10-30T07:04:59;29.10;;;14.70;;
54189;SDS011;40340;53.208;6.582;2022-10-30T07:07:25;25.13;;;14.18;;
54189;SDS011;40340;53.208;6.582;2022-10-30T07:09:50;25.58;;;14.18;;
54189;SDS011;40340;53.208;6.582;2022-10-30T07:12:16;30.15;;;14.98;;
54189;SDS011;40340;53.208;6.582;2022-10-30T07:14:42;26.80;;;15.23;;
54189;SDS011;40340;53.208;6.582;2022-10-30T07:17:08;25.50;;;14.52;;
54189;SDS011;40340;53.208;6.582;2022-10-30T07:19:33;22.63;;;14.20;;
54189;SDS011;40340;53.208;6.582;2022-10-30T07:21:59;29.45;;;14.75;;
54189;SDS011;40340;53.208;6.582;2022-10-30T07:24:26;23.73;;;14.43;;
54189;SDS011;40340;53.208;6.582;2022-10-30T07:26:51;28.17;;;15.18;;
54189;SDS011;40340;53.208;6.582;2022-10-30T07:29:17;24.70;;;13.87;;
54189;SDS011;40340;53.208;6.582;2022-10-30T07:31:45;28.70;;;14.65;;
54189;SDS011;40340;53.208;6.582;2022-10-30T07:34:11;24.77;;;14.23;;
54189;SDS011;40340;53.208;6.582;2022-10-30T07:36:36;30.15;;;14.52;;
54189;SDS011;40340;53.208;6.582;2022-10-30T07:39:02;31.53;;;15.97;;
54189;SDS011;40340;53.208;6.582;2022-10-30T07:41:27;32.47;;;15.32;;
54189;SDS011;40340;53.208;6.582;2022-10-30T07:43:53;30.38;;;13.95;;
54189;SDS011;40340;53.208;6.582;2022-10-30T07:46:19;24.35;;;14.75;;
54189;SDS011;40340;53.208;6.582;2022-10-30T07:48:44;25.00;;;14.38;;
54189;SDS011;40340;53.208;6.582;2022-10-30T07:51:10;25.73;;;13.35;;
54189;SDS011;40340;53.208;6.582;2022-10-30T07:53:35;28.65;;;15.35;;
54189;SDS011;40340;53.208;6.582;2022-10-30T07:56:01;24.37;;;14.33;;
54189;SDS011;40340;53.208;6.582;2022-10-30T07:58:26;25.83;;;14.60;;
54189;SDS011;40340;53.208;6.582;2022-10-30T08:00:52;27.02;;;14.52;;
54189;SDS011;40340;53.208;6.582;2022-10-30T08:03:18;29.00;;;14.65;;
54189;SDS011;40340;53.208;6.582;2022-10-30T08:05:43;27.80;;;14.47;;
54189;SDS011;40340;53.208;6.582;2022-10-30T08:08:09;27.85;;;13.70;;
54189;SDS011;40340;53.208;6.582;2022-10-30T08:10:35;23.73;;;13.63;;
54189;SDS011;40340;53.208;6.582;2022-10-30T08:13:01;24.40;;;13.57;;
54189;SDS011;40340;53.208;6.582;2022-10-30T08:15:27;29.25;;;14.75;;
54189;SDS011;40340;53.208;6.582;2022-10-30T08:17:53;20.97;;;13.37;;
54189;SDS011;40340;53.208;6.582;2022-10-30T08:20:19;29.02;;;13.80;;
54189;SDS011;40340;53.208;6.582;2022-10-30T08:22:50;28.17;;;14.07;;
54189;SDS011;40340;53.208;6.582;2022-10-30T08:25:21;25.52;;;12.80;;
54189;SDS011;40340;53.208;6.582;2022-10-30T08:30:31;24.08;;;13.10;;
54189;SDS011;40340;53.208;6.582;2022-10-30T08:32:59;22.17;;;13.68;;
54189;SDS011;40340;53.208;6.582;2022-10-30T08:35:26;36.53;;;13.95;;
54189;SDS011;40340;53.208;6.582;2022-10-30T08:37:56;29.73;;;12.57;;
54189;SDS011;40340;53.208;6.582;2022-10-30T08:40:23;22.40;;;11.95;;
54189;SDS011;40340;53.208;6.582;2022-10-30T08:42:49;21.00;;;11.48;;
54189;SDS011;40340;53.208;6.582;2022-10-30T08:47:41;22.30;;;10.77;;
54189;SDS011;40340;53.208;6.582;2022-10-30T08:50:07;18.93;;;10.27;;
54189;SDS011;40340;53.208;6.582;2022-10-30T08:52:33;23.33;;;10.95;;
54189;SDS011;40340;53.208;6.582;2022-10-30T08:54:59;21.80;;;10.27;;
54189;SDS011;40340;53.208;6.582;2022-10-30T08:57:25;24.07;;;10.23;;
54189;SDS011;40340;53.208;6.582;2022-10-30T08:59:51;18.90;;;9.93;;
54189;SDS011;40340;53.208;6.582;2022-10-30T09:02:16;22.17;;;10.63;;
54189;SDS011;40340;53.208;6.582;2022-10-30T09:04:42;20.47;;;10.17;;
54189;SDS011;40340;53.208;6.582;2022-10-30T09:07:08;21.02;;;9.73;;
54189;SDS011;40340;53.208;6.582;2022-10-30T09:09:33;18.83;;;9.37;;
54189;SDS011;40340;53.208;6.582;2022-10-30T09:11:59;15.43;;;8.80;;
54189;SDS011;40340;53.208;6.582;2022-10-30T09:14:25;20.53;;;8.47;;
54189;SDS011;40340;53.208;6.582;2022-10-30T09:16:50;17.43;;;9.23;;
54189;SDS011;40340;53.208;6.582;2022-10-30T09:19:16;19.13;;;9.03;;
54189;SDS011;40340;53.208;6.582;2022-10-30T09:21:41;18.37;;;8.53;;
54189;SDS011;40340;53.208;6.582;2022-10-30T09:24:07;18.23;;;9.13;;
54189;SDS011;40340;53.208;6.582;2022-10-30T09:26:32;19.10;;;8.63;;
54189;SDS011;40340;53.208;6.582;2022-10-30T09:28:58;17.90;;;7.90;;
54189;SDS011;40340;53.208;6.582;2022-10-30T09:31:24;16.97;;;7.83;;
54189;SDS011;40340;53.208;6.582;2022-10-30T09:33:49;18.50;;;7.70;;
54189;SDS011;40340;53.208;6.582;2022-10-30T09:36:15;16.00;;;7.97;;
54189;SDS011;40340;53.208;6.582;2022-10-30T09:38:41;12.75;;;7.63;;
54189;SDS011;40340;53.208;6.582;2022-10-30T10:04:57;17.17;;;7.10;;
54189;SDS011;40340;53.208;6.582;2022-10-30T10:07:54;16.63;;;7.10;;
54189;SDS011;40340;53.208;6.582;2022-10-30T10:10:36;12.82;;;6.50;;
54189;SDS011;40340;53.208;6.582;2022-10-30T10:13:17;15.57;;;6.90;;
54189;SDS011;40340;53.208;6.582;2022-10-30T10:16:14;16.75;;;6.45;;
54189;SDS011;40340;53.208;6.582;2022-10-30T10:18:47;23.63;;;7.63;;
54189;SDS011;40340;53.208;6.582;2022-10-30T10:21:22;14.43;;;6.70;;
54189;SDS011;40340;53.208;6.582;2022-10-30T10:23:51;16.33;;;6.75;;
54189;SDS011;40340;53.208;6.582;2022-10-30T10:42:39;17.30;;;6.35;;
54189;SDS011;40340;53.208;6.582;2022-10-30T10:45:48;14.98;;;6.15;;
54189;SDS011;40340;53.208;6.582;2022-10-30T10:54:02;17.05;;;6.95;;
54189;SDS011;40340;53.208;6.582;2022-10-30T10:56:39;15.10;;;5.75;;
54189;SDS011;40340;53.208;6.582;2022-10-30T11:07:18;18.25;;;6.72;;
54189;SDS011;40340;53.208;6.582;2022-10-30T11:09:50;15.07;;;6.30;;
54189;SDS011;40340;53.208;6.582;2022-10-30T11:12:19;15.77;;;7.03;;
54189;SDS011;40340;53.208;6.582;2022-10-30T11:14:51;15.02;;;6.80;;
54189;SDS011;40340;53.208;6.582;2022-10-30T11:17:21;16.60;;;6.10;;
54189;SDS011;40340;53.208;6.582;2022-10-30T11:19:59;16.58;;;6.47;;
54189;SDS011;40340;53.208;6.582;2022-10-30T11:22:36;12.40;;;5.57;;
54189;SDS011;40340;53.208;6.582;2022-10-30T11:25:23;16.98;;;5.97;;
54189;SDS011;40340;53.208;6.582;2022-10-30T11:27:57;15.82;;;5.70;;
54189;SDS011;40340;53.208;6.582;2022-10-30T11:30:25;15.75;;;5.65;;
54189;SDS011;40340;53.208;6.582;2022-10-30T11:32:53;14.88;;;6.22;;
54189;SDS011;40340;53.208;6.582;2022-10-30T11:35:19;14.50;;;5.90;;
54189;SDS011;40340;53.208;6.582;2022-10-30T11:37:50;14.68;;;5.70;;
54189;SDS011;40340;53.208;6.582;2022-10-30T11:40:18;15.98;;;5.88;;
54189;SDS011;40340;53.208;6.582;2022-10-30T11:42:47;14.02;;;4.95;;
54189;SDS011;40340;53.208;6.582;2022-10-30T11:45:38;16.00;;;5.85;;
54189;SDS011;40340;53.208;6.582;2022-10-30T11:48:09;15.20;;;5.30;;
54189;SDS011;40340;53.208;6.582;2022-10-30T11:50:47;13.38;;;5.45;;
54189;SDS011;40340;53.208;6.582;2022-10-30T11:53:21;11.35;;;5.40;;
54189;SDS011;40340;53.208;6.582;2022-10-30T11:55:54;12.70;;;5.25;;
54189;SDS011;40340;53.208;6.582;2022-10-30T11:58:27;13.73;;;5.53;;
54189;SDS011;40340;53.208;6.582;2022-10-30T12:03:35;15.52;;;5.50;;
54189;SDS011;40340;53.208;6.582;2022-10-30T12:06:10;15.07;;;5.70;;
54189;SDS011;40340;53.208;6.582;2022-10-30T12:11:49;16.98;;;5.45;;
54189;SDS011;40340;53.208;6.582;2022-10-30T12:14:15;15.90;;;5.47;;
54189;SDS011;40340;53.208;6.582;2022-10-30T12:16:46;12.05;;;5.32;;
54189;SDS011;40340;53.208;6.582;2022-10-30T12:19:14;12.93;;;5.32;;
54189;SDS011;40340;53.208;6.582;2022-10-30T12:21:48;14.30;;;5.30;;
54189;SDS011;40340;53.208;6.582;2022-10-30T12:24:28;10.50;;;4.55;;
54189;SDS011;40340;53.208;6.582;2022-10-30T12:26:55;13.60;;;5.15;;
54189;SDS011;40340;53.208;6.582;2022-10-30T12:29:26;17.75;;;5.22;;
54189;SDS011;40340;53.208;6.582;2022-10-30T12:32:19;12.15;;;5.20;;
54189;SDS011;40340;53.208;6.582;2022-10-30T12:34:54;14.55;;;4.97;;
54189;SDS011;40340;53.208;6.582;2022-10-30T12:42:44;14.63;;;4.55;;
54189;SDS011;40340;53.208;6.582;2022-10-30T12:45:29;15.35;;;5.10;;
54189;SDS011;40340;53.208;6.582;2022-10-30T12:48:45;14.02;;;5.68;;
54189;SDS011;40340;53.208;6.582;2022-10-30T12:56:35;13.85;;;5.40;;
54189;SDS011;40340;53.208;6.582;2022-10-30T13:02:11;12.20;;;4.90;;
54189;SDS011;40340;53.208;6.582;2022-10-30T13:04:48;11.13;;;4.50;;
54189;SDS011;40340;53.208;6.582;2022-10-30T13:07:30;12.73;;;5.63;;
54189;SDS011;40340;53.208;6.582;2022-10-30T13:10:12;15.43;;;6.43;;
54189;SDS011;40340;53.208;6.582;2022-10-30T13:12:46;19.15;;;6.20;;
54189;SDS011;40340;53.208;6.582;2022-10-30T13:15:25;14.95;;;5.60;;
54189;SDS011;40340;53.208;6.582;2022-10-30T13:18:00;21.65;;;9.90;;
54189;SDS011;40340;53.208;6.582;2022-10-30T13:20:47;15.68;;;6.95;;
54189;SDS011;40340;53.208;6.582;2022-10-30T13:23:27;11.43;;;5.30;;
54189;SDS011;40340;53.208;6.582;2022-10-30T13:28:51;17.35;;;5.90;;
54189;SDS011;40340;53.208;6.582;2022-10-30T13:42:11;13.02;;;5.95;;
54189;SDS011;40340;53.208;6.582;2022-10-30T13:44:45;9.68;;;4.88;;
54189;SDS011;40340;53.208;6.582;2022-10-30T13:53:03;12.20;;;5.25;;
54189;SDS011;40340;53.208;6.582;2022-10-30T13:55:36;12.10;;;5.30;;
54189;SDS011;40340;53.208;6.582;2022-10-30T13:58:09;10.38;;;4.88;;
54189;SDS011;40340;53.208;6.582;2022-10-30T14:01:11;11.27;;;5.30;;
54189;SDS011;40340;53.208;6.582;2022-10-30T14:06:13;14.63;;;5.53;;
54189;SDS011;40340;53.208;6.582;2022-10-30T14:09:00;18.20;;;6.15;;
54189;SDS011;40340;53.208;6.582;2022-10-30T14:11:36;18.88;;;6.10;;
54189;SDS011;40340;53.208;6.582;2022-10-30T14:14:03;12.03;;;6.07;;
54189;SDS011;40340;53.208;6.582;2022-10-30T14:16:34;11.77;;;5.80;;
54189;SDS011;40340;53.208;6.582;2022-10-30T14:21:40;14.93;;;5.88;;
54189;SDS011;40340;53.208;6.582;2022-10-30T14:24:29;18.90;;;6.07;;
54189;SDS011;40340;53.208;6.582;2022-10-30T14:37:17;14.52;;;5.82;;
54189;SDS011;40340;53.208;6.582;2022-10-30T14:43:26;15.57;;;5.35;;
54189;SDS011;40340;53.208;6.582;2022-10-30T14:46:09;13.45;;;5.70;;
54189;SDS011;40340;53.208;6.582;2022-10-30T14:51:37;10.20;;;5.32;;
54189;SDS011;40340;53.208;6.582;2022-10-30T14:56:52;11.02;;;5.70;;
54189;SDS011;40340;53.208;6.582;2022-10-30T14:59:19;13.37;;;6.03;;
54189;SDS011;40340;53.208;6.582;2022-10-30T15:04:49;19.58;;;6.80;;
54189;SDS011;40340;53.208;6.582;2022-10-30T15:12:21;14.05;;;6.57;;
54189;SDS011;40340;53.208;6.582;2022-10-30T15:15:23;18.20;;;5.70;;
54189;SDS011;40340;53.208;6.582;2022-10-30T15:17:58;14.07;;;6.30;;
54189;SDS011;40340;53.208;6.582;2022-10-30T15:20:29;12.50;;;5.50;;
54189;SDS011;40340;53.208;6.582;2022-10-30T15:23:19;14.57;;;5.93;;
54189;SDS011;40340;53.208;6.582;2022-10-30T15:25:49;14.07;;;6.25;;
54189;SDS011;40340;53.208;6.582;2022-10-30T15:28:17;16.20;;;6.53;;
54189;SDS011;40340;53.208;6.582;2022-10-30T15:33:30;11.50;;;6.07;;
54189;SDS011;40340;53.208;6.582;2022-10-30T15:35:57;15.57;;;6.72;;
54189;SDS011;40340;53.208;6.582;2022-10-30T15:38:23;15.13;;;6.07;;
54189;SDS011;40340;53.208;6.582;2022-10-30T15:40:49;13.57;;;6.32;;
54189;SDS011;40340;53.208;6.582;2022-10-30T15:43:20;12.85;;;6.35;;
54189;SDS011;40340;53.208;6.582;2022-10-30T15:45:52;14.60;;;6.55;;
54189;SDS011;40340;53.208;6.582;2022-10-30T15:48:23;14.90;;;6.25;;
54189;SDS011;40340;53.208;6.582;2022-10-30T15:50:59;17.15;;;6.45;;
54189;SDS011;40340;53.208;6.582;2022-10-30T15:53:47;15.02;;;6.68;;
54189;SDS011;40340;53.208;6.582;2022-10-30T15:56:23;16.67;;;6.25;;
54189;SDS011;40340;53.208;6.582;2022-10-30T15:59:00;13.35;;;6.80;;
54189;SDS011;40340;53.208;6.582;2022-10-30T16:01:32;14.32;;;6.38;;
54189;SDS011;40340;53.208;6.582;2022-10-30T16:04:20;16.83;;;6.82;;
54189;SDS011;40340;53.208;6.582;2022-10-30T16:06:51;13.32;;;6.88;;
54189;SDS011;40340;53.208;6.582;2022-10-30T16:09:19;12.52;;;6.45;;
54189;SDS011;40340;53.208;6.582;2022-10-30T16:11:46;16.63;;;6.75;;
54189;SDS011;40340;53.208;6.582;2022-10-30T16:14:14;16.98;;;6.75;;
54189;SDS011;40340;53.208;6.582;2022-10-30T16:16:43;14.90;;;7.65;;
54189;SDS011;40340;53.208;6.582;2022-10-30T16:19:14;17.50;;;7.45;;
54189;SDS011;40340;53.208;6.582;2022-10-30T16:21:44;15.15;;;8.00;;
54189;SDS011;40340;53.208;6.582;2022-10-30T16:24:11;14.50;;;7.60;;
54189;SDS011;40340;53.208;6.582;2022-10-30T16:26:38;16.27;;;8.63;;
54189;SDS011;40340;53.208;6.582;2022-10-30T16:31:42;16.30;;;8.38;;
54189;SDS011;40340;53.208;6.582;2022-10-30T16:34:17;20.20;;;8.43;;
54189;SDS011;40340;53.208;6.582;2022-10-30T16:37:05;19.88;;;8.65;;
54189;SDS011;40340;53.208;6.582;2022-10-30T16:39:35;15.65;;;8.65;;
54189;SDS011;40340;53.208;6.582;2022-10-30T16:42:02;16.55;;;8.68;;
54189;SDS011;40340;53.208;6.582;2022-10-30T16:44:28;16.23;;;8.95;;
54189;SDS011;40340;53.208;6.582;2022-10-30T16:49:33;18.52;;;9.90;;
54189;SDS011;40340;53.208;6.582;2022-10-30T16:52:04;21.75;;;9.15;;
54189;SDS011;40340;53.208;6.582;2022-10-30T16:54:31;21.30;;;10.23;;
54189;SDS011;40340;53.208;6.582;2022-10-30T16:57:01;19.70;;;10.10;;
54189;SDS011;40340;53.208;6.582;2022-10-30T16:59:36;19.63;;;9.82;;
54189;SDS011;40340;53.208;6.582;2022-10-30T17:02:15;17.33;;;10.70;;
54189;SDS011;40340;53.208;6.582;2022-10-30T17:04:54;25.50;;;10.63;;
54189;SDS011;40340;53.208;6.582;2022-10-30T17:07:32;19.27;;;10.63;;
54189;SDS011;40340;53.208;6.582;2022-10-30T17:09:58;19.13;;;11.00;;
54189;SDS011;40340;53.208;6.582;2022-10-30T17:12:24;21.87;;;11.13;;
54189;SDS011;40340;53.208;6.582;2022-10-30T17:14:53;17.23;;;10.63;;
54189;SDS011;40340;53.208;6.582;2022-10-30T17:17:32;21.70;;;12.30;;
54189;SDS011;40340;53.208;6.582;2022-10-30T17:20:05;22.30;;;11.50;;
54189;SDS011;40340;53.208;6.582;2022-10-30T17:22:31;24.35;;;12.90;;
54189;SDS011;40340;53.208;6.582;2022-10-30T17:24:57;29.80;;;14.33;;
54189;SDS011;40340;53.208;6.582;2022-10-30T17:29:58;21.88;;;12.40;;
54189;SDS011;40340;53.208;6.582;2022-10-30T17:32:25;24.27;;;13.50;;
54189;SDS011;40340;53.208;6.582;2022-10-30T17:35:05;23.58;;;13.23;;
54189;SDS011;40340;53.208;6.582;2022-10-30T17:37:38;28.52;;;13.85;;